sensor_id;sensor_type;location;lat;lon;timestamp;P1;durP1;ratioP1;P2;durP2;ratioP2
17725;SDS011;8983;53.156;17.960;2024-01-30T00:00:36;60.53;;;25.33;;
17725;SDS011;8983;53.156;17.960;2024-01-30T00:03:05;59.97;;;26.30;;
17725;SDS011;8983;53.156;17.960;2024-01-30T00:05:34;64.40;;;25.47;;
17725;SDS011;8983;53.156;17.960;2024-01-30T00:08:02;55.87;;;25.97;;
17725;SDS011;8983;53.156;17.960;2024-01-30T00:10:31;66.30;;;26.70;;
17725;SDS011;8983;53.156;17.960;2024-01-30T00:12:59;62.53;;;28.50;;
17725;SDS011;8983;53.156;17.960;2024-01-30T00:15:27;60.90;;;28.50;;
17725;SDS011;8983;53.156;17.960;2024-01-30T00:17:56;61.83;;;26.80;;
17725;SDS011;8983;53.156;17.960;2024-01-30T00:20:24;72.83;;;28.70;;
17725;SDS011;8983;53.156;17.960;2024-01-30T00:22:52;67.03;;;26.57;;
17725;SDS011;8983;53.156;17.960;2024-01-30T00:25:20;53.97;;;23.53;;
17725;SDS011;8983;53.156;17.960;2024-01-30T00:27:48;54.10;;;22.53;;
17725;SDS011;8983;53.156;17.960;2024-01-30T00:30:16;57.93;;;22.93;;
17725;SDS011;8983;53.156;17.960;2024-01-30T00:32:44;53.17;;;26.17;;
17725;SDS011;8983;53.156;17.960;2024-01-30T00:35:14;52.63;;;25.00;;
17725;SDS011;8983;53.156;17.960;2024-01-30T00:37:42;61.80;;;24.93;;
17725;SDS011;8983;53.156;17.960;2024-01-30T00:40:11;71.13;;;31.93;;
17725;SDS011;8983;53.156;17.960;2024-01-30T00:42:42;74.80;;;35.37;;
17725;SDS011;8983;53.156;17.960;2024-01-30T00:45:11;70.77;;;30.07;;
17725;SDS011;8983;53.156;17.960;2024-01-30T00:47:40;73.40;;;33.50;;
17725;SDS011;8983;53.156;17.960;2024-01-30T00:50:08;81.13;;;32.70;;
17725;SDS011;8983;53.156;17.960;2024-01-30T00:52:38;73.70;;;32.10;;
17725;SDS011;8983;53.156;17.960;2024-01-30T00:55:08;102.17;;;41.23;;
17725;SDS011;8983;53.156;17.960;2024-01-30T00:57:36;93.70;;;37.93;;
17725;SDS011;8983;53.156;17.960;2024-01-30T01:00:04;71.87;;;31.53;;
17725;SDS011;8983;53.156;17.960;2024-01-30T01:02:37;80.17;;;33.10;;
17725;SDS011;8983;53.156;17.960;2024-01-30T01:05:05;85.70;;;36.67;;
17725;SDS011;8983;53.156;17.960;2024-01-30T01:07:34;84.17;;;35.67;;
17725;SDS011;8983;53.156;17.960;2024-01-30T01:10:04;82.27;;;38.03;;
17725;SDS011;8983;53.156;17.960;2024-01-30T01:12:33;94.60;;;40.53;;
17725;SDS011;8983;53.156;17.960;2024-01-30T01:15:01;79.43;;;36.67;;
17725;SDS011;8983;53.156;17.960;2024-01-30T01:17:29;77.83;;;35.20;;
17725;SDS011;8983;53.156;17.960;2024-01-30T01:19:57;67.23;;;31.57;;
17725;SDS011;8983;53.156;17.960;2024-01-30T01:22:26;72.33;;;32.40;;
17725;SDS011;8983;53.156;17.960;2024-01-30T01:24:54;73.83;;;32.23;;
17725;SDS011;8983;53.156;17.960;2024-01-30T01:27:23;62.43;;;28.07;;
17725;SDS011;8983;53.156;17.960;2024-01-30T01:29:51;71.70;;;28.80;;
17725;SDS011;8983;53.156;17.960;2024-01-30T01:32:19;54.40;;;28.63;;
17725;SDS011;8983;53.156;17.960;2024-01-30T01:34:47;62.93;;;28.13;;
17725;SDS011;8983;53.156;17.960;2024-01-30T01:37:16;61.90;;;29.67;;
17725;SDS011;8983;53.156;17.960;2024-01-30T01:39:44;74.17;;;28.63;;
17725;SDS011;8983;53.156;17.960;2024-01-30T01:42:12;61.53;;;26.87;;
17725;SDS011;8983;53.156;17.960;2024-01-30T01:44:42;61.07;;;25.00;;
17725;SDS011;8983;53.156;17.960;2024-01-30T01:47:09;61.10;;;26.17;;
17725;SDS011;8983;53.156;17.960;2024-01-30T01:49:38;58.23;;;26.50;;
17725;SDS011;8983;53.156;17.960;2024-01-30T01:52:07;49.43;;;23.60;;
17725;SDS011;8983;53.156;17.960;2024-01-30T01:54:35;52.33;;;26.83;;
17725;SDS011;8983;53.156;17.960;2024-01-30T01:57:04;59.80;;;24.60;;
17725;SDS011;8983;53.156;17.960;2024-01-30T01:59:32;50.90;;;24.07;;
17725;SDS011;8983;53.156;17.960;2024-01-30T02:02:02;56.87;;;25.40;;
17725;SDS011;8983;53.156;17.960;2024-01-30T02:04:31;60.03;;;26.00;;
17725;SDS011;8983;53.156;17.960;2024-01-30T02:06:59;53.20;;;23.53;;
17725;SDS011;8983;53.156;17.960;2024-01-30T02:09:28;56.57;;;24.70;;
17725;SDS011;8983;53.156;17.960;2024-01-30T02:11:56;62.23;;;23.87;;
17725;SDS011;8983;53.156;17.960;2024-01-30T02:14:24;57.20;;;22.80;;
17725;SDS011;8983;53.156;17.960;2024-01-30T02:16:56;51.30;;;22.17;;
17725;SDS011;8983;53.156;17.960;2024-01-30T02:19:26;51.77;;;24.47;;
17725;SDS011;8983;53.156;17.960;2024-01-30T02:21:55;41.13;;;19.90;;
17725;SDS011;8983;53.156;17.960;2024-01-30T02:24:23;53.90;;;24.10;;
17725;SDS011;8983;53.156;17.960;2024-01-30T02:26:51;46.37;;;22.20;;
17725;SDS011;8983;53.156;17.960;2024-01-30T02:29:19;44.13;;;20.53;;
17725;SDS011;8983;53.156;17.960;2024-01-30T02:31:48;44.20;;;19.57;;
17725;SDS011;8983;53.156;17.960;2024-01-30T02:34:16;48.27;;;20.63;;
17725;SDS011;8983;53.156;17.960;2024-01-30T02:36:45;44.23;;;19.80;;
17725;SDS011;8983;53.156;17.960;2024-01-30T02:39:15;37.17;;;18.57;;
17725;SDS011;8983;53.156;17.960;2024-01-30T02:41:43;40.53;;;19.50;;
17725;SDS011;8983;53.156;17.960;2024-01-30T02:44:11;37.93;;;18.80;;
17725;SDS011;8983;53.156;17.960;2024-01-30T02:46:39;38.70;;;18.43;;
17725;SDS011;8983;53.156;17.960;2024-01-30T02:49:07;31.60;;;16.17;;
17725;SDS011;8983;53.156;17.960;2024-01-30T02:51:36;35.50;;;18.17;;
17725;SDS011;8983;53.156;17.960;2024-01-30T02:54:04;38.57;;;18.00;;
17725;SDS011;8983;53.156;17.960;2024-01-30T02:56:33;42.27;;;18.43;;
17725;SDS011;8983;53.156;17.960;2024-01-30T02:59:01;38.37;;;17.27;;
17725;SDS011;8983;53.156;17.960;2024-01-30T03:01:29;41.47;;;18.20;;
17725;SDS011;8983;53.156;17.960;2024-01-30T03:03:58;40.27;;;18.87;;
17725;SDS011;8983;53.156;17.960;2024-01-30T03:06:26;40.97;;;18.73;;
17725;SDS011;8983;53.156;17.960;2024-01-30T03:08:54;34.50;;;18.80;;
17725;SDS011;8983;53.156;17.960;2024-01-30T03:11:21;38.57;;;16.60;;
17725;SDS011;8983;53.156;17.960;2024-01-30T03:13:51;33.03;;;16.63;;
17725;SDS011;8983;53.156;17.960;2024-01-30T03:16:19;34.30;;;16.77;;
17725;SDS011;8983;53.156;17.960;2024-01-30T03:18:47;39.47;;;17.40;;
17725;SDS011;8983;53.156;17.960;2024-01-30T03:21:15;28.33;;;16.17;;
17725;SDS011;8983;53.156;17.960;2024-01-30T03:23:43;40.27;;;17.33;;
17725;SDS011;8983;53.156;17.960;2024-01-30T03:26:11;32.47;;;16.73;;
17725;SDS011;8983;53.156;17.960;2024-01-30T03:28:41;38.87;;;16.80;;
17725;SDS011;8983;53.156;17.960;2024-01-30T03:31:10;34.33;;;16.47;;
17725;SDS011;8983;53.156;17.960;2024-01-30T03:33:40;33.93;;;16.97;;
17725;SDS011;8983;53.156;17.960;2024-01-30T03:36:08;35.90;;;16.30;;
17725;SDS011;8983;53.156;17.960;2024-01-30T03:38:37;37.53;;;16.83;;
17725;SDS011;8983;53.156;17.960;2024-01-30T03:41:07;30.90;;;16.23;;
17725;SDS011;8983;53.156;17.960;2024-01-30T03:43:36;38.57;;;16.90;;
17725;SDS011;8983;53.156;17.960;2024-01-30T03:46:04;31.57;;;15.70;;
17725;SDS011;8983;53.156;17.960;2024-01-30T03:48:33;31.97;;;14.73;;
17725;SDS011;8983;53.156;17.960;2024-01-30T03:51:01;26.47;;;15.13;;
17725;SDS011;8983;53.156;17.960;2024-01-30T03:53:30;32.83;;;15.03;;
17725;SDS011;8983;53.156;17.960;2024-01-30T03:55:58;31.40;;;14.47;;
17725;SDS011;8983;53.156;17.960;2024-01-30T03:58:26;30.80;;;15.03;;
17725;SDS011;8983;53.156;17.960;2024-01-30T04:00:54;31.03;;;15.23;;
17725;SDS011;8983;53.156;17.960;2024-01-30T04:03:22;30.47;;;15.63;;
17725;SDS011;8983;53.156;17.960;2024-01-30T04:05:52;31.10;;;15.53;;
17725;SDS011;8983;53.156;17.960;2024-01-30T04:08:21;30.87;;;16.27;;
17725;SDS011;8983;53.156;17.960;2024-01-30T04:10:49;31.43;;;14.87;;
17725;SDS011;8983;53.156;17.960;2024-01-30T04:13:17;26.93;;;14.60;;
17725;SDS011;8983;53.156;17.960;2024-01-30T04:15:45;25.20;;;14.23;;
17725;SDS011;8983;53.156;17.960;2024-01-30T04:18:13;24.13;;;14.03;;
17725;SDS011;8983;53.156;17.960;2024-01-30T04:20:41;28.53;;;14.23;;
17725;SDS011;8983;53.156;17.960;2024-01-30T04:23:11;31.07;;;14.97;;
17725;SDS011;8983;53.156;17.960;2024-01-30T04:25:39;30.80;;;14.10;;
17725;SDS011;8983;53.156;17.960;2024-01-30T04:28:08;29.33;;;13.90;;
17725;SDS011;8983;53.156;17.960;2024-01-30T04:30:38;31.47;;;16.53;;
17725;SDS011;8983;53.156;17.960;2024-01-30T04:33:06;24.33;;;14.87;;
17725;SDS011;8983;53.156;17.960;2024-01-30T04:35:34;34.33;;;15.43;;
17725;SDS011;8983;53.156;17.960;2024-01-30T04:38:03;32.50;;;15.73;;
17725;SDS011;8983;53.156;17.960;2024-01-30T04:40:33;33.13;;;16.43;;
17725;SDS011;8983;53.156;17.960;2024-01-30T04:43:01;32.73;;;15.77;;
17725;SDS011;8983;53.156;17.960;2024-01-30T04:45:29;32.67;;;16.90;;
17725;SDS011;8983;53.156;17.960;2024-01-30T04:47:57;30.17;;;16.53;;
17725;SDS011;8983;53.156;17.960;2024-01-30T04:50:25;42.13;;;19.40;;
17725;SDS011;8983;53.156;17.960;2024-01-30T04:52:53;35.40;;;19.03;;
17725;SDS011;8983;53.156;17.960;2024-01-30T04:55:21;44.53;;;20.37;;
17725;SDS011;8983;53.156;17.960;2024-01-30T04:57:51;38.73;;;20.20;;
17725;SDS011;8983;53.156;17.960;2024-01-30T05:00:19;45.67;;;20.33;;
17725;SDS011;8983;53.156;17.960;2024-01-30T05:02:47;40.83;;;20.17;;
17725;SDS011;8983;53.156;17.960;2024-01-30T05:05:15;38.70;;;20.13;;
17725;SDS011;8983;53.156;17.960;2024-01-30T05:07:44;38.90;;;19.30;;
17725;SDS011;8983;53.156;17.960;2024-01-30T05:10:12;41.30;;;19.70;;
17725;SDS011;8983;53.156;17.960;2024-01-30T05:12:40;42.53;;;18.13;;
17725;SDS011;8983;53.156;17.960;2024-01-30T05:15:10;38.10;;;18.40;;
17725;SDS011;8983;53.156;17.960;2024-01-30T05:17:39;36.77;;;19.43;;
17725;SDS011;8983;53.156;17.960;2024-01-30T05:20:07;42.27;;;20.93;;
17725;SDS011;8983;53.156;17.960;2024-01-30T05:22:37;44.03;;;18.10;;
17725;SDS011;8983;53.156;17.960;2024-01-30T05:25:11;39.13;;;19.90;;
17725;SDS011;8983;53.156;17.960;2024-01-30T05:27:40;53.17;;;25.87;;
17725;SDS011;8983;53.156;17.960;2024-01-30T05:30:10;56.33;;;28.07;;
17725;SDS011;8983;53.156;17.960;2024-01-30T05:32:39;51.47;;;26.17;;
17725;SDS011;8983;53.156;17.960;2024-01-30T05:35:07;56.53;;;26.57;;
17725;SDS011;8983;53.156;17.960;2024-01-30T05:37:34;51.97;;;25.33;;
17725;SDS011;8983;53.156;17.960;2024-01-30T05:40:02;45.80;;;22.70;;
17725;SDS011;8983;53.156;17.960;2024-01-30T05:42:31;38.03;;;21.07;;
17725;SDS011;8983;53.156;17.960;2024-01-30T05:44:59;40.97;;;20.20;;
17725;SDS011;8983;53.156;17.960;2024-01-30T05:47:29;40.00;;;21.67;;
17725;SDS011;8983;53.156;17.960;2024-01-30T05:49:57;43.50;;;20.70;;
17725;SDS011;8983;53.156;17.960;2024-01-30T05:52:25;42.07;;;21.07;;
17725;SDS011;8983;53.156;17.960;2024-01-30T05:54:53;42.40;;;21.27;;
17725;SDS011;8983;53.156;17.960;2024-01-30T05:57:22;39.53;;;20.80;;
17725;SDS011;8983;53.156;17.960;2024-01-30T05:59:49;41.53;;;19.53;;
17725;SDS011;8983;53.156;17.960;2024-01-30T06:02:18;45.00;;;21.87;;
17725;SDS011;8983;53.156;17.960;2024-01-30T06:04:47;39.73;;;20.07;;
17725;SDS011;8983;53.156;17.960;2024-01-30T06:07:16;47.30;;;22.53;;
17725;SDS011;8983;53.156;17.960;2024-01-30T06:09:45;46.97;;;23.13;;
17725;SDS011;8983;53.156;17.960;2024-01-30T06:12:13;45.73;;;21.93;;
17725;SDS011;8983;53.156;17.960;2024-01-30T06:14:41;55.33;;;23.33;;
17725;SDS011;8983;53.156;17.960;2024-01-30T06:17:12;47.67;;;23.13;;
17725;SDS011;8983;53.156;17.960;2024-01-30T06:19:41;47.37;;;26.43;;
17725;SDS011;8983;53.156;17.960;2024-01-30T06:22:10;48.17;;;24.23;;
17725;SDS011;8983;53.156;17.960;2024-01-30T06:24:38;45.97;;;21.77;;
17725;SDS011;8983;53.156;17.960;2024-01-30T06:27:06;43.37;;;23.33;;
17725;SDS011;8983;53.156;17.960;2024-01-30T06:29:35;41.23;;;25.13;;
17725;SDS011;8983;53.156;17.960;2024-01-30T06:32:03;48.10;;;24.63;;
17725;SDS011;8983;53.156;17.960;2024-01-30T06:34:32;49.13;;;24.67;;
17725;SDS011;8983;53.156;17.960;2024-01-30T06:37:00;46.77;;;23.73;;
17725;SDS011;8983;53.156;17.960;2024-01-30T06:39:30;46.87;;;24.17;;
17725;SDS011;8983;53.156;17.960;2024-01-30T06:41:58;51.10;;;22.70;;
17725;SDS011;8983;53.156;17.960;2024-01-30T06:44:26;45.80;;;22.73;;
17725;SDS011;8983;53.156;17.960;2024-01-30T06:46:58;45.60;;;22.10;;
17725;SDS011;8983;53.156;17.960;2024-01-30T06:49:26;52.57;;;24.83;;
17725;SDS011;8983;53.156;17.960;2024-01-30T06:51:55;61.30;;;26.73;;
17725;SDS011;8983;53.156;17.960;2024-01-30T06:54:23;57.97;;;28.87;;
17725;SDS011;8983;53.156;17.960;2024-01-30T06:56:53;60.23;;;27.33;;
17725;SDS011;8983;53.156;17.960;2024-01-30T06:59:21;46.40;;;25.10;;
17725;SDS011;8983;53.156;17.960;2024-01-30T07:01:49;49.90;;;25.17;;
17725;SDS011;8983;53.156;17.960;2024-01-30T07:04:17;49.73;;;22.27;;
17725;SDS011;8983;53.156;17.960;2024-01-30T07:06:46;45.60;;;22.03;;
17725;SDS011;8983;53.156;17.960;2024-01-30T07:09:14;57.20;;;24.30;;
17725;SDS011;8983;53.156;17.960;2024-01-30T07:11:42;51.60;;;23.57;;
17725;SDS011;8983;53.156;17.960;2024-01-30T07:14:11;45.87;;;23.50;;
17725;SDS011;8983;53.156;17.960;2024-01-30T07:16:39;47.97;;;21.93;;
17725;SDS011;8983;53.156;17.960;2024-01-30T07:19:07;50.27;;;22.13;;
17725;SDS011;8983;53.156;17.960;2024-01-30T07:21:36;48.47;;;22.87;;
17725;SDS011;8983;53.156;17.960;2024-01-30T07:24:06;54.03;;;23.63;;
17725;SDS011;8983;53.156;17.960;2024-01-30T07:26:35;49.30;;;23.07;;
17725;SDS011;8983;53.156;17.960;2024-01-30T07:29:03;45.60;;;22.83;;
17725;SDS011;8983;53.156;17.960;2024-01-30T07:31:32;41.70;;;22.97;;
17725;SDS011;8983;53.156;17.960;2024-01-30T07:34:01;47.03;;;24.57;;
17725;SDS011;8983;53.156;17.960;2024-01-30T07:36:30;44.43;;;24.30;;
17725;SDS011;8983;53.156;17.960;2024-01-30T07:38:58;43.60;;;22.90;;
17725;SDS011;8983;53.156;17.960;2024-01-30T07:41:26;48.23;;;24.17;;
17725;SDS011;8983;53.156;17.960;2024-01-30T07:43:54;62.23;;;25.87;;
17725;SDS011;8983;53.156;17.960;2024-01-30T07:46:22;52.33;;;27.27;;
17725;SDS011;8983;53.156;17.960;2024-01-30T07:48:51;57.43;;;26.73;;
17725;SDS011;8983;53.156;17.960;2024-01-30T07:51:20;48.93;;;24.73;;
17725;SDS011;8983;53.156;17.960;2024-01-30T07:53:48;55.60;;;24.70;;
17725;SDS011;8983;53.156;17.960;2024-01-30T07:56:17;49.97;;;22.83;;
17725;SDS011;8983;53.156;17.960;2024-01-30T07:58:45;46.07;;;22.23;;
17725;SDS011;8983;53.156;17.960;2024-01-30T08:01:14;54.23;;;24.20;;
17725;SDS011;8983;53.156;17.960;2024-01-30T08:03:42;53.20;;;23.83;;
17725;SDS011;8983;53.156;17.960;2024-01-30T08:06:12;47.13;;;23.43;;
17725;SDS011;8983;53.156;17.960;2024-01-30T08:08:40;42.83;;;22.37;;
17725;SDS011;8983;53.156;17.960;2024-01-30T08:11:08;49.00;;;24.10;;
17725;SDS011;8983;53.156;17.960;2024-01-30T08:13:36;52.17;;;22.27;;
17725;SDS011;8983;53.156;17.960;2024-01-30T08:16:05;54.40;;;25.83;;
17725;SDS011;8983;53.156;17.960;2024-01-30T08:18:35;54.37;;;25.67;;
17725;SDS011;8983;53.156;17.960;2024-01-30T08:21:03;58.17;;;27.67;;
17725;SDS011;8983;53.156;17.960;2024-01-30T08:23:33;56.80;;;27.27;;
17725;SDS011;8983;53.156;17.960;2024-01-30T08:26:01;56.30;;;26.17;;
17725;SDS011;8983;53.156;17.960;2024-01-30T08:28:30;54.27;;;26.20;;
17725;SDS011;8983;53.156;17.960;2024-01-30T08:30:58;61.60;;;24.77;;
17725;SDS011;8983;53.156;17.960;2024-01-30T08:33:27;50.53;;;24.70;;
17725;SDS011;8983;53.156;17.960;2024-01-30T08:35:55;55.33;;;24.27;;
17725;SDS011;8983;53.156;17.960;2024-01-30T08:38:23;44.90;;;22.33;;
17725;SDS011;8983;53.156;17.960;2024-01-30T08:40:54;46.10;;;23.07;;
17725;SDS011;8983;53.156;17.960;2024-01-30T08:43:22;45.90;;;23.30;;
17725;SDS011;8983;53.156;17.960;2024-01-30T08:45:50;49.40;;;22.47;;
17725;SDS011;8983;53.156;17.960;2024-01-30T08:48:18;48.77;;;23.33;;
17725;SDS011;8983;53.156;17.960;2024-01-30T08:50:47;47.60;;;22.20;;
17725;SDS011;8983;53.156;17.960;2024-01-30T08:53:15;48.43;;;25.40;;
17725;SDS011;8983;53.156;17.960;2024-01-30T08:55:44;52.13;;;25.20;;
17725;SDS011;8983;53.156;17.960;2024-01-30T08:58:13;50.97;;;26.43;;
17725;SDS011;8983;53.156;17.960;2024-01-30T09:00:42;50.73;;;25.87;;
17725;SDS011;8983;53.156;17.960;2024-01-30T09:03:10;69.70;;;28.20;;
17725;SDS011;8983;53.156;17.960;2024-01-30T09:05:38;117.13;;;32.83;;
17725;SDS011;8983;53.156;17.960;2024-01-30T09:08:06;71.67;;;31.30;;
17725;SDS011;8983;53.156;17.960;2024-01-30T09:10:34;69.37;;;31.93;;
17725;SDS011;8983;53.156;17.960;2024-01-30T09:13:03;61.73;;;31.90;;
17725;SDS011;8983;53.156;17.960;2024-01-30T09:15:33;61.50;;;30.37;;
17725;SDS011;8983;53.156;17.960;2024-01-30T09:18:02;56.10;;;29.70;;
17725;SDS011;8983;53.156;17.960;2024-01-30T09:20:30;54.23;;;28.70;;
17725;SDS011;8983;53.156;17.960;2024-01-30T09:23:00;61.43;;;29.03;;
17725;SDS011;8983;53.156;17.960;2024-01-30T09:25:28;41.20;;;19.23;;
17725;SDS011;8983;53.156;17.960;2024-01-30T09:27:56;33.93;;;17.20;;
17725;SDS011;8983;53.156;17.960;2024-01-30T09:30:24;45.57;;;18.40;;
17725;SDS011;8983;53.156;17.960;2024-01-30T09:32:54;35.97;;;18.30;;
17725;SDS011;8983;53.156;17.960;2024-01-30T09:35:22;28.23;;;14.20;;
17725;SDS011;8983;53.156;17.960;2024-01-30T09:37:50;30.77;;;14.90;;
17725;SDS011;8983;53.156;17.960;2024-01-30T09:40:18;35.53;;;15.47;;
17725;SDS011;8983;53.156;17.960;2024-01-30T09:42:47;31.17;;;15.30;;
17725;SDS011;8983;53.156;17.960;2024-01-30T09:45:17;25.30;;;14.80;;
17725;SDS011;8983;53.156;17.960;2024-01-30T09:47:46;24.07;;;12.83;;
17725;SDS011;8983;53.156;17.960;2024-01-30T09:50:15;26.87;;;14.33;;
17725;SDS011;8983;53.156;17.960;2024-01-30T09:52:44;30.77;;;16.67;;
17725;SDS011;8983;53.156;17.960;2024-01-30T09:55:13;38.00;;;16.60;;
17725;SDS011;8983;53.156;17.960;2024-01-30T09:57:41;37.27;;;17.43;;
17725;SDS011;8983;53.156;17.960;2024-01-30T10:00:10;28.13;;;15.93;;
17725;SDS011;8983;53.156;17.960;2024-01-30T10:02:39;25.17;;;14.50;;
17725;SDS011;8983;53.156;17.960;2024-01-30T10:05:08;25.13;;;13.30;;
17725;SDS011;8983;53.156;17.960;2024-01-30T10:07:38;25.37;;;14.07;;
17725;SDS011;8983;53.156;17.960;2024-01-30T10:10:06;31.80;;;15.87;;
17725;SDS011;8983;53.156;17.960;2024-01-30T10:12:35;26.57;;;13.80;;
17725;SDS011;8983;53.156;17.960;2024-01-30T10:15:06;29.43;;;15.00;;
17725;SDS011;8983;53.156;17.960;2024-01-30T10:17:37;21.93;;;13.13;;
17725;SDS011;8983;53.156;17.960;2024-01-30T10:20:05;23.97;;;12.63;;
17725;SDS011;8983;53.156;17.960;2024-01-30T10:22:35;20.80;;;12.43;;
17725;SDS011;8983;53.156;17.960;2024-01-30T10:25:05;22.47;;;12.63;;
17725;SDS011;8983;53.156;17.960;2024-01-30T10:27:34;25.83;;;12.30;;
17725;SDS011;8983;53.156;17.960;2024-01-30T10:30:02;17.23;;;10.20;;
17725;SDS011;8983;53.156;17.960;2024-01-30T10:32:30;20.30;;;11.07;;
17725;SDS011;8983;53.156;17.960;2024-01-30T10:34:58;20.27;;;11.07;;
17725;SDS011;8983;53.156;17.960;2024-01-30T10:37:27;20.03;;;11.43;;
17725;SDS011;8983;53.156;17.960;2024-01-30T10:40:00;20.73;;;11.23;;
17725;SDS011;8983;53.156;17.960;2024-01-30T10:42:33;15.80;;;9.70;;
17725;SDS011;8983;53.156;17.960;2024-01-30T10:45:06;19.37;;;11.30;;
17725;SDS011;8983;53.156;17.960;2024-01-30T10:47:36;16.13;;;9.20;;
17725;SDS011;8983;53.156;17.960;2024-01-30T10:50:05;25.63;;;11.60;;
17725;SDS011;8983;53.156;17.960;2024-01-30T10:52:35;20.87;;;10.77;;
17725;SDS011;8983;53.156;17.960;2024-01-30T10:55:04;20.20;;;11.43;;
17725;SDS011;8983;53.156;17.960;2024-01-30T10:57:35;16.03;;;10.13;;
17725;SDS011;8983;53.156;17.960;2024-01-30T11:00:05;15.93;;;10.23;;
17725;SDS011;8983;53.156;17.960;2024-01-30T11:02:37;17.13;;;10.03;;
17725;SDS011;8983;53.156;17.960;2024-01-30T11:05:07;17.80;;;9.33;;
17725;SDS011;8983;53.156;17.960;2024-01-30T11:07:36;14.33;;;9.43;;
17725;SDS011;8983;53.156;17.960;2024-01-30T11:10:07;17.47;;;10.50;;
17725;SDS011;8983;53.156;17.960;2024-01-30T11:12:41;18.90;;;10.23;;
17725;SDS011;8983;53.156;17.960;2024-01-30T11:15:11;21.30;;;11.50;;
17725;SDS011;8983;53.156;17.960;2024-01-30T11:17:44;19.47;;;11.30;;
17725;SDS011;8983;53.156;17.960;2024-01-30T11:20:14;16.73;;;11.00;;
17725;SDS011;8983;53.156;17.960;2024-01-30T11:22:44;20.40;;;10.60;;
17725;SDS011;8983;53.156;17.960;2024-01-30T11:25:13;19.77;;;10.80;;
17725;SDS011;8983;53.156;17.960;2024-01-30T11:27:44;21.73;;;11.37;;
17725;SDS011;8983;53.156;17.960;2024-01-30T11:30:20;20.53;;;10.87;;
17725;SDS011;8983;53.156;17.960;2024-01-30T11:32:59;16.47;;;9.60;;
17725;SDS011;8983;53.156;17.960;2024-01-30T11:35:29;18.27;;;11.83;;
17725;SDS011;8983;53.156;17.960;2024-01-30T11:37:59;18.00;;;11.10;;
17725;SDS011;8983;53.156;17.960;2024-01-30T11:40:29;21.30;;;11.30;;
17725;SDS011;8983;53.156;17.960;2024-01-30T11:43:00;19.23;;;11.00;;
17725;SDS011;8983;53.156;17.960;2024-01-30T11:45:30;20.57;;;11.90;;
17725;SDS011;8983;53.156;17.960;2024-01-30T11:47:58;20.10;;;11.27;;
17725;SDS011;8983;53.156;17.960;2024-01-30T11:50:29;19.70;;;11.47;;
17725;SDS011;8983;53.156;17.960;2024-01-30T11:52:58;18.83;;;11.70;;
17725;SDS011;8983;53.156;17.960;2024-01-30T11:55:28;23.80;;;11.20;;
17725;SDS011;8983;53.156;17.960;2024-01-30T11:58:02;18.27;;;9.97;;
17725;SDS011;8983;53.156;17.960;2024-01-30T12:00:31;19.30;;;10.07;;
17725;SDS011;8983;53.156;17.960;2024-01-30T12:03:01;18.97;;;10.27;;
17725;SDS011;8983;53.156;17.960;2024-01-30T12:05:32;19.97;;;11.47;;
17725;SDS011;8983;53.156;17.960;2024-01-30T12:08:00;19.97;;;11.23;;
17725;SDS011;8983;53.156;17.960;2024-01-30T12:10:28;19.20;;;11.70;;
17725;SDS011;8983;53.156;17.960;2024-01-30T12:12:57;17.33;;;11.03;;
17725;SDS011;8983;53.156;17.960;2024-01-30T12:15:27;20.83;;;11.27;;
17725;SDS011;8983;53.156;17.960;2024-01-30T12:18:03;25.07;;;12.23;;
17725;SDS011;8983;53.156;17.960;2024-01-30T12:20:33;19.90;;;11.70;;
17725;SDS011;8983;53.156;17.960;2024-01-30T12:23:01;22.30;;;12.20;;
17725;SDS011;8983;53.156;17.960;2024-01-30T12:25:29;17.63;;;10.93;;
17725;SDS011;8983;53.156;17.960;2024-01-30T12:27:58;16.37;;;10.07;;
17725;SDS011;8983;53.156;17.960;2024-01-30T12:30:28;17.40;;;9.90;;
17725;SDS011;8983;53.156;17.960;2024-01-30T12:32:56;15.27;;;9.97;;
17725;SDS011;8983;53.156;17.960;2024-01-30T12:35:25;15.83;;;9.60;;
17725;SDS011;8983;53.156;17.960;2024-01-30T12:37:58;18.50;;;10.63;;
17725;SDS011;8983;53.156;17.960;2024-01-30T12:40:26;17.17;;;9.33;;
17725;SDS011;8983;53.156;17.960;2024-01-30T12:42:55;20.93;;;10.93;;
17725;SDS011;8983;53.156;17.960;2024-01-30T12:45:24;19.83;;;10.80;;
17725;SDS011;8983;53.156;17.960;2024-01-30T12:47:54;17.73;;;10.00;;
17725;SDS011;8983;53.156;17.960;2024-01-30T12:50:22;15.87;;;10.17;;
17725;SDS011;8983;53.156;17.960;2024-01-30T12:52:50;18.83;;;10.40;;
17725;SDS011;8983;53.156;17.960;2024-01-30T12:55:19;16.83;;;9.87;;
17725;SDS011;8983;53.156;17.960;2024-01-30T12:57:47;18.27;;;10.20;;
17725;SDS011;8983;53.156;17.960;2024-01-30T13:00:15;17.50;;;9.83;;
17725;SDS011;8983;53.156;17.960;2024-01-30T13:02:44;19.00;;;10.53;;
17725;SDS011;8983;53.156;17.960;2024-01-30T13:05:14;16.40;;;9.17;;
17725;SDS011;8983;53.156;17.960;2024-01-30T13:07:42;18.93;;;9.53;;
17725;SDS011;8983;53.156;17.960;2024-01-30T13:10:10;17.30;;;10.57;;
17725;SDS011;8983;53.156;17.960;2024-01-30T13:12:39;19.80;;;10.87;;
17725;SDS011;8983;53.156;17.960;2024-01-30T13:15:07;18.37;;;10.70;;
17725;SDS011;8983;53.156;17.960;2024-01-30T13:17:37;19.00;;;10.90;;
17725;SDS011;8983;53.156;17.960;2024-01-30T13:20:06;17.33;;;10.47;;
17725;SDS011;8983;53.156;17.960;2024-01-30T13:22:39;22.40;;;13.07;;
17725;SDS011;8983;53.156;17.960;2024-01-30T13:25:07;18.43;;;10.97;;
17725;SDS011;8983;53.156;17.960;2024-01-30T13:27:35;16.93;;;11.00;;
17725;SDS011;8983;53.156;17.960;2024-01-30T13:30:06;17.63;;;9.93;;
17725;SDS011;8983;53.156;17.960;2024-01-30T13:32:35;34.40;;;15.80;;
17725;SDS011;8983;53.156;17.960;2024-01-30T13:35:04;19.53;;;11.73;;
17725;SDS011;8983;53.156;17.960;2024-01-30T13:37:32;28.53;;;13.23;;
17725;SDS011;8983;53.156;17.960;2024-01-30T13:40:03;20.20;;;10.50;;
17725;SDS011;8983;53.156;17.960;2024-01-30T13:42:39;22.07;;;11.60;;
17725;SDS011;8983;53.156;17.960;2024-01-30T13:45:07;17.03;;;10.67;;
17725;SDS011;8983;53.156;17.960;2024-01-30T13:47:37;20.17;;;11.10;;
17725;SDS011;8983;53.156;17.960;2024-01-30T13:50:06;21.77;;;10.30;;
17725;SDS011;8983;53.156;17.960;2024-01-30T13:52:35;18.10;;;11.03;;
17725;SDS011;8983;53.156;17.960;2024-01-30T13:55:11;52.43;;;26.57;;
17725;SDS011;8983;53.156;17.960;2024-01-30T13:57:40;139.27;;;62.30;;
17725;SDS011;8983;53.156;17.960;2024-01-30T14:00:09;50.43;;;18.57;;
17725;SDS011;8983;53.156;17.960;2024-01-30T14:02:38;29.30;;;13.87;;
17725;SDS011;8983;53.156;17.960;2024-01-30T14:05:06;30.87;;;13.10;;
17725;SDS011;8983;53.156;17.960;2024-01-30T14:07:36;23.17;;;11.20;;
17725;SDS011;8983;53.156;17.960;2024-01-30T14:10:07;20.53;;;11.93;;
17725;SDS011;8983;53.156;17.960;2024-01-30T14:12:41;20.47;;;11.67;;
17725;SDS011;8983;53.156;17.960;2024-01-30T14:15:10;25.37;;;13.20;;
17725;SDS011;8983;53.156;17.960;2024-01-30T14:17:52;26.83;;;13.97;;
17725;SDS011;8983;53.156;17.960;2024-01-30T14:20:21;27.37;;;14.30;;
17725;SDS011;8983;53.156;17.960;2024-01-30T14:22:50;55.93;;;21.23;;
17725;SDS011;8983;53.156;17.960;2024-01-30T14:25:19;192.27;;;71.03;;
17725;SDS011;8983;53.156;17.960;2024-01-30T14:27:49;109.40;;;42.73;;
17725;SDS011;8983;53.156;17.960;2024-01-30T14:30:17;118.37;;;41.63;;